createdAt,value
2022-11-08T00:00:18.668Z,97580.00
2022-11-08T00:02:45.612Z,97571.19
2022-11-08T00:05:12.009Z,97581.59
2022-11-08T00:07:38.345Z,97570.13
2022-11-08T00:10:04.837Z,97569.06
2022-11-08T00:12:31.093Z,97573.59
2022-11-08T00:14:57.859Z,97575.47
2022-11-08T00:17:24.179Z,97574.66
2022-11-08T00:19:50.577Z,97570.13
2022-11-08T00:22:17.403Z,97573.03
2022-11-08T00:24:43.637Z,97567.69
2022-11-08T00:27:10.870Z,97572.25
2022-11-08T00:29:37.143Z,97570.63
2022-11-08T00:32:03.471Z,97580.50
2022-11-08T00:34:31.133Z,97582.38
2022-11-08T00:36:57.420Z,97592.22
2022-11-08T00:39:24.019Z,97596.53
2022-11-08T00:41:50.312Z,97598.63
2022-11-08T00:44:16.627Z,97590.63
2022-11-08T00:46:42.956Z,97598.63
2022-11-08T00:49:09.255Z,97589.81
2022-11-08T00:51:35.501Z,97594.34
2022-11-08T00:54:01.838Z,97600.75
2022-11-08T00:56:28.167Z,97593.00
2022-11-08T00:58:55.497Z,97592.19
2022-11-08T01:01:21.841Z,97595.09
2022-11-08T01:03:48.206Z,97588.97
2022-11-08T01:06:14.469Z,97596.19
2022-11-08T01:08:40.826Z,97591.06
2022-11-08T01:11:07.127Z,97591.06
2022-11-08T01:13:33.348Z,97593.22
2022-11-08T01:15:59.710Z,97583.31
2022-11-08T01:18:26.282Z,97591.31
2022-11-08T01:20:52.525Z,97587.88
2022-11-08T01:23:18.778Z,97586.25
2022-11-08T01:25:45.117Z,97590.00
2022-11-08T01:28:11.356Z,97586.50
2022-11-08T01:30:37.655Z,97590.78
2022-11-08T01:33:03.967Z,97583.84
2022-11-08T01:35:30.281Z,97580.34
2022-11-08T01:37:56.549Z,97569.69
2022-11-08T01:40:22.811Z,97569.41
2022-11-08T01:42:49.575Z,97570.78
2022-11-08T01:45:16.668Z,97572.38
2022-11-08T01:47:42.913Z,97569.72
2022-11-08T01:50:09.210Z,97573.72
2022-11-08T01:52:35.714Z,97561.13
2022-11-08T01:55:01.998Z,97564.28
2022-11-08T01:57:28.256Z,97557.84
2022-11-08T01:59:54.799Z,97561.28
2022-11-08T02:02:21.112Z,97560.72
2022-11-08T02:04:47.462Z,97560.16
2022-11-08T02:07:13.808Z,97551.81
2022-11-08T02:09:40.105Z,97553.41
2022-11-08T02:12:06.427Z,97553.88
2022-11-08T02:14:32.663Z,97543.72
2022-11-08T02:16:58.955Z,97550.63
2022-11-08T02:19:26.063Z,97534.09
2022-11-08T02:21:52.569Z,97533.78
2022-11-08T02:24:18.815Z,97535.31
2022-11-08T02:26:45.144Z,97532.34
2022-11-08T02:29:11.464Z,97538.19
2022-11-08T02:31:38.540Z,97537.63
2022-11-08T02:34:05.891Z,97536.25
2022-11-08T02:36:33.553Z,97539.19
2022-11-08T02:38:59.955Z,97541.28
2022-11-08T02:41:26.588Z,97537.03
2022-11-08T02:43:52.900Z,97535.66
2022-11-08T02:46:19.180Z,97530.56
2022-11-08T02:48:45.479Z,97527.34
2022-11-08T02:51:11.930Z,97520.41
2022-11-08T02:53:38.226Z,97528.09
2022-11-08T02:56:04.831Z,97521.41
2022-11-08T02:58:31.066Z,97521.91
2022-11-08T03:00:57.424Z,97521.34
2022-11-08T03:03:23.717Z,97528.00
2022-11-08T03:05:50.040Z,97524.75
2022-11-08T03:08:16.933Z,97520.72
2022-11-08T03:10:43.687Z,97520.16
2022-11-08T03:13:10.635Z,97515.34
2022-11-08T03:15:36.907Z,97513.75
2022-11-08T03:18:03.162Z,97506.22
2022-11-08T03:20:32.789Z,97513.69
2022-11-08T03:22:59.709Z,97508.81
2022-11-08T03:25:26.022Z,97493.34
2022-11-08T03:27:52.319Z,97506.09
2022-11-08T03:30:18.610Z,97510.88
2022-11-08T03:32:45.023Z,97510.34
2022-11-08T03:35:11.515Z,97510.56
2022-11-08T03:37:38.945Z,97510.81
2022-11-08T03:40:05.276Z,97512.88
2022-11-08T03:42:31.542Z,97515.78
2022-11-08T03:44:57.853Z,97511.78
2022-11-08T03:47:24.541Z,97513.88
2022-11-08T03:49:50.820Z,97519.47
2022-11-08T03:52:17.089Z,97506.38
2022-11-08T03:54:43.422Z,97512.75
2022-11-08T03:57:09.723Z,97504.19
2022-11-08T03:59:36.089Z,97512.44
2022-11-08T04:02:02.888Z,97509.22
2022-11-08T04:04:29.717Z,97507.88
2022-11-08T04:06:55.984Z,97506.47
2022-11-08T04:09:22.327Z,97518.44
2022-11-08T04:11:48.628Z,97499.25
2022-11-08T04:14:14.945Z,97501.34
2022-11-08T04:16:41.271Z,97505.06
2022-11-08T04:19:07.544Z,97509.00
2022-11-08T04:21:43.196Z,97510.84
2022-11-08T04:24:09.502Z,97496.97
2022-11-08T04:26:35.917Z,97496.44
2022-11-08T04:29:02.170Z,97496.66
2022-11-08T04:31:29.827Z,97499.56
2022-11-08T04:33:56.477Z,97493.69
2022-11-08T04:36:22.765Z,97483.28
2022-11-08T04:38:49.134Z,97480.88
2022-11-08T04:41:16.427Z,97492.59
2022-11-08T04:43:42.767Z,97492.03
2022-11-08T04:46:09.026Z,97482.41
2022-11-08T04:48:35.351Z,97472.25
2022-11-08T04:51:01.663Z,97469.03
2022-11-08T04:53:28.032Z,97471.94
2022-11-08T04:55:54.337Z,97470.59
2022-11-08T04:58:20.802Z,97468.97
2022-11-08T05:00:47.341Z,97467.38
2022-11-08T05:03:13.639Z,97473.72
2022-11-08T05:05:40.358Z,97471.31
2022-11-08T05:08:07.668Z,97465.19
2022-11-08T05:10:33.920Z,97467.28
2022-11-08T05:13:00.278Z,97458.50
2022-11-08T05:15:26.641Z,97461.41
2022-11-08T05:17:53.012Z,97457.09
2022-11-08T05:20:19.371Z,97461.09
2022-11-08T05:22:45.768Z,97460.25
2022-11-08T05:25:12.089Z,97464.00
2022-11-08T05:27:38.471Z,97453.59
2022-11-08T05:30:04.770Z,97462.84
2022-11-08T05:32:31.178Z,97455.94
2022-11-08T05:34:57.568Z,97458.81
2022-11-08T05:37:24.147Z,97461.72
2022-11-08T05:39:51.964Z,97452.16
2022-11-08T05:42:18.334Z,97448.91
2022-11-08T05:44:44.673Z,97451.81
2022-11-08T05:47:11.305Z,97446.75
2022-11-08T05:49:37.635Z,97450.44
2022-11-08T05:52:04.040Z,97452.31
2022-11-08T05:54:31.015Z,97447.25
2022-11-08T05:56:57.481Z,97437.88
2022-11-08T05:59:23.801Z,97435.47
2022-11-08T06:01:50.355Z,97439.97
2022-11-08T06:04:16.672Z,97434.91
2022-11-08T06:06:42.989Z,97435.16
2022-11-08T06:09:09.323Z,97440.47
2022-11-08T06:11:35.670Z,97438.84
2022-11-08T06:14:01.980Z,97438.06
2022-11-08T06:16:28.775Z,97433.75
2022-11-08T06:18:55.252Z,97420.47
2022-11-08T06:21:22.041Z,97425.78
2022-11-08T06:23:48.521Z,97423.38
2022-11-08T06:26:15.003Z,97408.28
2022-11-08T06:28:41.304Z,97432.97
2022-11-08T06:31:07.619Z,97428.44
2022-11-08T06:33:34.280Z,97425.53
2022-11-08T06:36:00.972Z,97427.41
2022-11-08T06:38:27.503Z,97430.66
2022-11-08T06:40:53.918Z,97425.06
2022-11-08T06:43:20.612Z,97423.84
2022-11-08T06:45:47.533Z,97424.66
2022-11-08T06:48:14.096Z,97430.97
2022-11-08T06:50:40.426Z,97437.31
2022-11-08T06:53:06.779Z,97444.16
2022-11-08T06:55:33.104Z,97441.91
2022-11-08T06:57:59.431Z,97442.84
2022-11-08T07:00:25.770Z,97456.91
2022-11-08T07:02:52.730Z,97447.50
2022-11-08T07:05:19.180Z,97447.31
2022-11-08T07:07:46.460Z,97449.56
2022-11-08T07:10:12.755Z,97444.53
2022-11-08T07:12:39.110Z,97450.69
2022-11-08T07:15:06.401Z,97444.38
2022-11-08T07:17:38.208Z,97451.41
2022-11-08T07:20:05.088Z,97447.75
2022-11-08T07:22:31.395Z,97449.38
2022-11-08T07:25:00.879Z,97450.72
2022-11-08T07:27:27.369Z,97459.13
2022-11-08T07:29:54.740Z,97450.16
2022-11-08T07:32:21.365Z,97450.72
2022-11-08T07:34:47.734Z,97450.00
2022-11-08T07:37:13.991Z,97446.31
2022-11-08T07:39:40.665Z,97437.75
2022-11-08T07:42:06.965Z,97432.16
2022-11-08T07:44:33.296Z,97433.22
2022-11-08T07:46:59.609Z,97439.63
2022-11-08T07:49:27.303Z,97434.03
2022-11-08T07:51:53.644Z,97433.50
2022-11-08T07:54:19.980Z,97422.03
2022-11-08T07:56:46.354Z,97417.50
2022-11-08T07:59:12.656Z,97410.03
2022-11-08T08:01:39.230Z,97404.97
2022-11-08T08:04:05.719Z,97410.06
2022-11-08T08:06:32.062Z,97413.84
2022-11-08T08:08:58.837Z,97426.91
2022-11-08T08:11:29.442Z,97422.13
2022-11-08T08:13:59.009Z,97424.28
2022-11-08T08:16:25.276Z,97433.38
2022-11-08T08:18:56.141Z,97440.88
2022-11-08T08:21:23.042Z,97426.72
2022-11-08T08:23:49.318Z,97420.88
2022-11-08T08:26:15.648Z,97422.50
2022-11-08T08:28:42.257Z,97412.66
2022-11-08T08:31:08.633Z,97401.47
2022-11-08T08:33:36.525Z,97401.47
2022-11-08T08:36:03.084Z,97394.28
2022-11-08T08:38:29.521Z,97392.44
2022-11-08T08:40:56.789Z,97394.06
2022-11-08T08:43:23.209Z,97395.41
2022-11-08T08:45:49.668Z,97394.63
2022-11-08T08:48:16.040Z,97387.69
2022-11-08T08:50:42.519Z,97358.00
2022-11-08T08:53:08.884Z,97389.03
2022-11-08T08:55:36.621Z,97381.03
2022-11-08T08:58:03.070Z,97389.03
2022-11-08T09:03:16.568Z,97387.47
2022-11-08T09:05:43.377Z,97385.59
2022-11-08T09:08:09.865Z,97381.06
2022-11-08T09:10:36.960Z,97385.31
2022-11-08T09:13:03.899Z,97377.56
2022-11-08T09:15:30.374Z,97371.97
2022-11-08T09:17:57.207Z,97371.19
2022-11-08T09:20:23.665Z,97377.59
2022-11-08T09:22:50.781Z,97376.25
2022-11-08T09:25:17.058Z,97375.19
2022-11-08T09:27:43.577Z,97376.53
2022-11-08T09:30:10.253Z,97371.97
2022-11-08T09:32:59.192Z,97377.88
2022-11-08T09:35:23.453Z,97370.66
2022-11-08T09:37:50.143Z,97368.75
2022-11-08T09:42:47.799Z,97372.78
2022-11-08T09:45:14.067Z,97364.75
2022-11-08T09:47:40.514Z,97373.31
2022-11-08T09:50:06.834Z,97362.63
2022-11-08T09:52:33.114Z,97362.63
2022-11-08T09:54:59.577Z,97371.69
2022-11-08T09:57:26.599Z,97362.63
2022-11-08T09:59:56.065Z,97363.66
2022-11-08T10:02:22.622Z,97369.28
2022-11-08T10:04:49.127Z,97367.69
2022-11-08T10:07:15.522Z,97369.03
2022-11-08T10:09:42.163Z,97369.03
2022-11-08T10:12:08.493Z,97366.34
2022-11-08T10:14:41.810Z,97369.03
2022-11-08T10:17:13.340Z,97356.72
2022-11-08T10:19:40.363Z,97351.38
2022-11-08T10:22:06.706Z,97339.03
2022-11-08T10:24:33.067Z,97341.44
2022-11-08T10:26:59.833Z,97339.53
2022-11-08T10:29:26.153Z,97332.56
2022-11-08T10:31:52.589Z,97332.06
2022-11-08T10:34:18.893Z,97330.13
2022-11-08T10:36:45.452Z,97324.50
2022-11-08T10:39:12.416Z,97331.44
2022-11-08T10:41:38.928Z,97336.78
2022-11-08T10:44:05.279Z,97325.56
2022-11-08T10:46:31.837Z,97318.84
2022-11-08T10:48:58.143Z,97305.97
2022-11-08T10:51:24.483Z,97299.78
2022-11-08T10:53:50.889Z,97310.50
2022-11-08T10:56:18.275Z,97305.41
2022-11-08T10:58:44.573Z,97310.97
2022-11-08T11:01:11.129Z,97305.88
2022-11-08T11:03:38.249Z,97308.78
2022-11-08T11:06:05.636Z,97306.94
2022-11-08T11:08:33.418Z,97302.63
2022-11-08T11:10:59.807Z,97313.59
2022-11-08T11:15:54.196Z,97309.28
2022-11-08T11:18:20.620Z,97306.63
2022-11-08T11:20:47.756Z,97314.09
2022-11-08T11:23:14.264Z,97321.84
2022-11-08T11:25:40.674Z,97311.47
2022-11-08T11:28:07.143Z,97315.00
2022-11-08T11:30:33.626Z,97312.09
2022-11-08T11:33:00.127Z,97301.97
2022-11-08T11:35:26.457Z,97297.97
2022-11-08T11:37:52.764Z,97290.72
2022-11-08T11:40:19.076Z,97288.84
2022-11-08T11:42:46.886Z,97295.28
2022-11-08T11:45:13.713Z,97296.06
2022-11-08T11:47:39.985Z,97290.72
2022-11-08T11:50:07.260Z,97284.03
2022-11-08T11:52:33.905Z,97276.28
2022-11-08T11:55:01.334Z,97286.47
2022-11-08T11:57:27.581Z,97267.44
2022-11-08T11:59:53.876Z,97267.69
2022-11-08T12:02:20.843Z,97260.75
2022-11-08T12:04:48.172Z,97255.38
2022-11-08T12:07:14.459Z,97259.94
2022-11-08T12:09:41.996Z,97233.97
2022-11-08T12:12:08.326Z,97229.13
2022-11-08T12:14:35.384Z,97235.59
2022-11-08T12:17:02.213Z,97234.50
2022-11-08T12:19:28.578Z,97219.50
2022-11-08T12:21:54.929Z,97212.56
2022-11-08T12:24:21.541Z,97220.59
2022-11-08T12:26:49.028Z,97208.81
2022-11-08T12:29:15.352Z,97210.69
2022-11-08T12:31:42.228Z,97200.00
2022-11-08T12:34:09.416Z,97199.72
2022-11-08T12:36:35.701Z,97188.50
2022-11-08T12:39:01.959Z,97188.78
2022-11-08T12:41:28.905Z,97187.47
2022-11-08T12:43:55.160Z,97176.25
2022-11-08T12:46:21.735Z,97178.94
2022-11-08T12:48:48.125Z,97172.56
2022-11-08T12:51:14.390Z,97172.31
2022-11-08T12:53:40.839Z,97168.28
2022-11-08T12:56:08.223Z,97161.63
2022-11-08T12:58:34.791Z,97160.25
2022-11-08T13:01:01.161Z,97169.91
2022-11-08T13:03:28.680Z,97174.19
2022-11-08T13:05:54.969Z,97160.53
2022-11-08T13:08:22.181Z,97154.38
2022-11-08T13:10:49.509Z,97160.28
2022-11-08T13:13:16.312Z,97153.09
2022-11-08T13:15:42.569Z,97160.88
2022-11-08T13:18:09.234Z,97155.00
2022-11-08T13:20:35.612Z,97157.69
2022-11-08T13:23:01.894Z,97168.41
2022-11-08T13:25:28.162Z,97161.72
2022-11-08T13:27:54.498Z,97159.88
2022-11-08T13:30:20.785Z,97160.63
2022-11-08T13:32:51.238Z,97166.81
2022-11-08T13:35:20.075Z,97163.63
2022-11-08T13:37:46.426Z,97151.06
2022-11-08T13:40:12.722Z,97158.84
2022-11-08T13:42:42.058Z,97153.22
2022-11-08T13:45:08.624Z,97155.63
2022-11-08T13:47:35.044Z,97156.69
2022-11-08T13:50:01.557Z,97152.19
2022-11-08T13:52:28.379Z,97153.25
2022-11-08T13:54:54.695Z,97143.91
2022-11-08T13:57:22.045Z,97149.53
2022-11-08T13:59:49.425Z,97146.59
2022-11-08T14:02:16.085Z,97144.16
2022-11-08T14:04:42.415Z,97142.56
2022-11-08T14:07:08.818Z,97144.19
2022-11-08T14:09:35.207Z,97140.19
2022-11-08T14:12:02.300Z,97136.16
2022-11-08T14:14:29.314Z,97144.44
2022-11-08T14:16:55.892Z,97140.19
2022-11-08T14:19:22.160Z,97134.53
2022-11-08T14:21:48.732Z,97131.84
2022-11-08T14:24:15.159Z,97136.94
2022-11-08T14:26:41.472Z,97135.03
2022-11-08T14:29:07.810Z,97127.81
2022-11-08T14:31:34.112Z,97122.72
2022-11-08T14:34:00.416Z,97122.97
2022-11-08T14:36:26.673Z,97124.31
2022-11-08T14:38:52.972Z,97127.50
2022-11-08T14:41:19.295Z,97131.50
2022-11-08T14:43:45.599Z,97133.91
2022-11-08T14:46:12.637Z,97131.78
2022-11-08T14:48:38.939Z,97138.47
2022-11-08T14:51:05.334Z,97139.25
2022-11-08T14:53:32.414Z,97120.28
2022-11-08T14:55:58.719Z,97119.19
2022-11-08T14:58:25.752Z,97129.63
2022-11-08T15:00:52.080Z,97133.91
2022-11-08T15:03:18.641Z,97140.03
2022-11-08T15:05:45.141Z,97138.97
2022-11-08T15:08:11.458Z,97138.16
2022-11-08T15:10:37.805Z,97132.81
2022-11-08T15:13:04.191Z,97127.47
2022-11-08T15:15:30.504Z,97120.25
2022-11-08T15:17:56.840Z,97128.56
2022-11-08T15:20:23.283Z,97136.59
2022-11-08T15:22:54.130Z,97134.69
2022-11-08T15:25:22.840Z,97135.78
2022-11-08T15:27:49.614Z,97127.75
2022-11-08T15:30:16.281Z,97124.28
2022-11-08T15:32:42.615Z,97125.06
2022-11-08T15:35:08.958Z,97124.53
2022-11-08T15:37:36.507Z,97137.91
2022-11-08T15:40:02.985Z,97137.91
2022-11-08T15:42:29.602Z,97139.78
2022-11-08T15:44:55.932Z,97128.31
2022-11-08T15:47:22.530Z,97126.69
2022-11-08T15:49:49.872Z,97135.53
2022-11-08T15:52:21.348Z,97130.19
2022-11-08T15:54:47.845Z,97131.22
2022-11-08T15:57:14.198Z,97140.06
2022-11-08T15:59:40.549Z,97145.69
2022-11-08T16:02:06.920Z,97141.16
2022-11-08T16:04:33.273Z,97134.19
2022-11-08T16:06:59.748Z,97130.72
2022-11-08T16:09:26.109Z,97138.97
2022-11-08T16:11:52.335Z,97138.97
2022-11-08T16:14:18.659Z,97150.50
2022-11-08T16:16:44.990Z,97142.72
2022-11-08T16:19:11.370Z,97151.56
2022-11-08T16:21:37.774Z,97142.47
2022-11-08T16:24:04.022Z,97144.09
2022-11-08T16:26:30.526Z,97142.19
2022-11-08T16:28:56.798Z,97128.84
2022-11-08T16:31:23.174Z,97133.13
2022-11-08T16:33:49.439Z,97126.69
2022-11-08T16:36:16.060Z,97125.63
2022-11-08T16:38:42.351Z,97137.91
2022-11-08T16:41:08.881Z,97118.91
2022-11-08T16:43:35.193Z,97122.13
2022-11-08T16:46:06.406Z,97127.47
2022-11-08T16:48:33.359Z,97129.06
2022-11-08T16:50:59.702Z,97118.09
2022-11-08T16:53:26.044Z,97119.69
2022-11-08T16:55:52.480Z,97126.63
2022-11-08T16:58:19.702Z,97134.38
2022-11-08T17:00:46.186Z,97130.66
2022-11-08T17:03:12.486Z,97130.38
2022-11-08T17:05:38.855Z,97128.78
2022-11-08T17:08:05.251Z,97134.63
2022-11-08T17:10:31.509Z,97132.78
2022-11-08T17:12:58.200Z,97138.13
2022-11-08T17:15:24.922Z,97134.38
2022-11-08T17:17:51.373Z,97140.53
2022-11-08T17:20:17.926Z,97141.31
2022-11-08T17:22:44.170Z,97136.78
2022-11-08T17:25:10.501Z,97142.91
2022-11-08T17:27:36.821Z,97145.59
2022-11-08T17:30:03.709Z,97142.13
2022-11-08T17:32:30.035Z,97136.78
2022-11-08T17:34:56.340Z,97147.50
2022-11-08T17:37:22.974Z,97157.38
2022-11-08T17:39:49.353Z,97149.34
2022-11-08T17:42:15.710Z,97146.69
2022-11-08T17:44:42.003Z,97161.16
2022-11-08T17:47:08.661Z,97152.31
2022-11-08T17:49:38.710Z,97146.16
2022-11-08T17:52:08.066Z,97145.09
2022-11-08T17:54:34.460Z,97154.19
2022-11-08T17:57:00.944Z,97149.63
2022-11-08T17:59:27.298Z,97151.78
2022-11-08T18:01:53.691Z,97155.25
2022-11-08T18:04:20.306Z,97158.72
2022-11-08T18:06:46.819Z,97158.22
2022-11-08T18:09:13.347Z,97150.97
2022-11-08T18:11:39.737Z,97152.06
2022-11-08T18:14:06.086Z,97160.09
2022-11-08T18:16:32.373Z,97160.09
2022-11-08T18:18:58.772Z,97164.63
2022-11-08T18:21:25.045Z,97165.44
2022-11-08T18:23:51.374Z,97170.78
2022-11-08T18:26:18.926Z,97164.63
2022-11-08T18:28:45.268Z,97163.81
2022-11-08T18:31:11.546Z,97157.69
2022-11-08T18:33:38.032Z,97157.69
2022-11-08T18:36:04.831Z,97153.38
2022-11-08T18:38:31.464Z,97158.75
2022-11-08T18:40:58.963Z,97151.53
2022-11-08T18:43:25.248Z,97152.34
2022-11-08T18:45:51.480Z,97150.72
2022-11-08T18:48:17.744Z,97148.84
2022-11-08T18:50:44.013Z,97144.31
2022-11-08T18:53:10.302Z,97142.41
2022-11-08T18:55:36.596Z,97152.88
2022-11-08T18:58:03.137Z,97146.44
2022-11-08T19:00:29.564Z,97148.81
2022-11-08T19:02:55.930Z,97142.41
2022-11-08T19:05:22.410Z,97140.53
2022-11-08T19:07:49.316Z,97140.25
2022-11-08T19:10:15.975Z,97139.19
2022-11-08T19:12:42.291Z,97137.31
2022-11-08T19:15:08.580Z,97133.28
2022-11-08T19:17:34.911Z,97139.44
2022-11-08T19:20:01.549Z,97141.84
2022-11-08T19:22:28.717Z,97146.91
2022-11-08T19:24:55.836Z,97139.69
2022-11-08T19:27:22.118Z,97148.25
2022-11-08T19:29:48.453Z,97131.91
2022-11-08T19:32:14.714Z,97140.75
2022-11-08T19:34:40.987Z,97146.88
2022-11-08T19:37:07.351Z,97143.16
2022-11-08T19:39:33.643Z,97133.22
2022-11-08T19:41:59.920Z,97137.78
2022-11-08T19:44:26.266Z,97137.78
2022-11-08T19:46:52.543Z,97140.19
2022-11-08T19:49:19.610Z,97139.38
2022-11-08T19:51:45.903Z,97138.56
2022-11-08T19:54:12.203Z,97135.91
2022-11-08T19:57:03.249Z,97130.53
2022-11-08T19:59:24.802Z,97130.53
2022-11-08T20:01:52.075Z,97121.75
2022-11-08T20:04:18.760Z,97121.75
2022-11-08T20:06:45.226Z,97111.81
2022-11-08T20:09:11.587Z,97116.38
2022-11-08T20:11:37.882Z,97127.09
2022-11-08T20:14:04.150Z,97121.75
2022-11-08T20:16:30.391Z,97111.81
2022-11-08T20:18:57.490Z,97116.38
2022-11-08T20:21:23.849Z,97121.75
2022-11-08T20:23:50.243Z,97129.75
2022-11-08T20:26:16.495Z,97121.75
2022-11-08T20:28:55.354Z,97144.19
2022-11-08T20:31:27.474Z,97140.75
2022-11-08T20:33:53.966Z,97137.25
2022-11-08T20:36:20.424Z,97134.59
2022-11-08T20:38:46.706Z,97147.16
2022-11-08T20:41:13.016Z,97159.72
2022-11-08T20:43:39.300Z,97153.59
2022-11-08T20:46:05.710Z,97151.69
2022-11-08T20:48:32.031Z,97149.31
2022-11-08T20:50:59.011Z,97150.38
2022-11-08T20:53:25.416Z,97149.59
2022-11-08T20:55:51.806Z,97148.78
2022-11-08T20:58:21.477Z,97142.66
2022-11-08T21:01:04.128Z,97133.81
2022-11-08T21:03:30.432Z,97136.47
2022-11-08T21:05:56.678Z,97130.03
2022-11-08T21:11:09.404Z,97121.25
2022-11-08T21:13:36.347Z,97121.25
2022-11-08T21:16:26.736Z,97112.94
2022-11-08T21:18:49.541Z,97132.72
2022-11-08T21:21:15.876Z,97130.84
2022-11-08T21:23:42.328Z,97135.91
2022-11-08T21:26:08.885Z,97135.16
2022-11-08T21:28:35.271Z,97147.44
2022-11-08T21:31:01.662Z,97139.13
2022-11-08T21:33:28.576Z,97138.31
2022-11-08T21:35:54.932Z,97135.66
2022-11-08T21:38:21.513Z,97139.94
2022-11-08T21:40:48.040Z,97135.41
2022-11-08T21:43:16.712Z,97130.03
2022-11-08T21:45:42.968Z,97130.03
2022-11-08T21:48:15.026Z,97133.50
2022-11-08T21:50:41.802Z,97136.97
2022-11-08T21:53:08.056Z,97132.44
2022-11-08T21:55:34.405Z,97135.13
2022-11-08T21:58:00.792Z,97142.06
2022-11-08T22:00:27.141Z,97144.44
2022-11-08T22:02:53.655Z,97149.03
2022-11-08T22:05:19.956Z,97141.00
2022-11-08T22:07:46.298Z,97147.94
2022-11-08T22:10:12.571Z,97147.94
2022-11-08T22:12:38.873Z,97157.56
2022-11-08T22:15:05.258Z,97155.97
2022-11-08T22:17:31.549Z,97158.66
2022-11-08T22:19:57.868Z,97164.53
2022-11-08T22:22:48.068Z,97161.03
2022-11-08T22:25:19.065Z,97171.47
2022-11-08T22:52:31.372Z,97174.25
2022-11-08T23:20:08.339Z,97145.47
2022-11-08T23:22:34.648Z,97136.41
2022-11-08T23:25:00.937Z,97128.16
2022-11-08T23:27:27.429Z,97121.44
2022-11-08T23:29:53.710Z,97117.44
2022-11-08T23:32:20.056Z,97105.44
2022-11-08T23:34:46.430Z,97135.88
2022-11-08T23:37:12.742Z,97115.06
2022-11-08T23:39:39.044Z,97112.66
2022-11-08T23:42:05.381Z,97119.34
2022-11-08T23:44:32.562Z,97117.19
2022-11-08T23:46:58.897Z,97115.63
2022-11-08T23:49:25.191Z,97113.22
2022-11-08T23:51:51.474Z,97116.69
2022-11-08T23:54:17.824Z,97106.25
2022-11-08T23:56:44.150Z,97103.06
2022-11-08T23:59:10.522Z,97102.53
